This is the latest recevied weather packets stored in our database for station/object Aulendorf. If no packets are shown the sender has not sent any weather packets the latest 1 day(s).
| Time | Temp. | Humidity | Pressure | Rain* | Wind** | Luminosity | Snow |
|---|---|---|---|---|---|---|---|
| 1777989730 | 17.22° C | 64% | 1005.5 hPa | 0 mm | 1.79 m/s, 5° | - | - |
| 1777987930 | 16.67° C | 70% | 1005.8 hPa | 0 mm | 4.02 m/s, 288° | - | - |
| 1777986130 | 17.78° C | 67% | 1005.7 hPa | 0 mm | 3.13 m/s, 325° | - | - |
| 1777984330 | 16.67° C | 76% | 1005.9 hPa | 0 mm | 1.34 m/s, 315° | - | - |
| 1777982530 | 15° C | 78% | 1006.2 hPa | 0 mm | 0.89 m/s, 148° | - | - |
| 1777980730 | 15° C | 77% | 1006.5 hPa | 0 mm | 1.79 m/s, 161° | - | - |
| 1777978931 | 15.56° C | 73% | 1006.4 hPa | 0 mm | 2.24 m/s, 222° | - | - |
| 1777977131 | 15° C | 71% | 1006.3 hPa | 0 mm | 1.34 m/s, 230° | - | - |
| 1777975332 | 15° C | 75% | 1006.3 hPa | 0 mm | 2.24 m/s, 201° | - | - |
| 1777973532 | 14.44° C | 78% | 1006.4 hPa | 0 mm | 1.34 m/s, 150° | - | - |
| 1777971732 | 13.89° C | 80% | 1006.4 hPa | 0 mm | 2.24 m/s, 190° | - | - |
| 1777969931 | 13.33° C | 80% | 1006.5 hPa | 0 mm | 1.34 m/s, 208° | - | - |
| 1777968130 | 13.89° C | 81% | 1006.8 hPa | 0 mm | 1.34 m/s, 155° | - | - |
| 1777966330 | 12.78° C | 82% | 1006.9 hPa | 0 mm | 1.79 m/s, 192° | - | - |
| 1777964531 | 12.22° C | 82% | 1007.2 hPa | 0 mm | 0 m/s | - | - |
| 1777962731 | 12.78° C | 77% | 1007.2 hPa | 0 mm | 1.34 m/s, 159° | - | - |
| 1777960932 | 11.67° C | 82% | 1007.6 hPa | 0 mm | 0 m/s | - | - |
| 1777959131 | 7.78° C | 87% | 1007.6 hPa | 0 mm | 0 m/s | - | - |
| 1777957331 | 7.22° C | 88% | 1007.6 hPa | 0 mm | 0 m/s | - | - |
| 1777955531 | 6.67° C | 89% | 1007.7 hPa | 0 mm | 0 m/s | - | - |
| 1777953730 | 6.67° C | 87% | 1007.7 hPa | 0 mm | 0.45 m/s, 263° | - | - |
| 1777951931 | 7.78° C | 87% | 1007.8 hPa | 0 mm | 0 m/s | - | - |
| 1777950133 | 7.78° C | 86% | 1008.1 hPa | 0 mm | 0.89 m/s, 263° | - | - |
* Rain since midnight (hover to see other rain measurements)
** Current wind speed in m/s (hover to see current wind gust speed)